»·PEaware :: DAL2841 KSLC-KPDX

DAL2841 :: KSLC-KPDX

FLIGHT INFORMATION

Flight Status: Arrived
Operator:
Delta Air Lines
More flights by this operator :: More flights under this callsign
Pilot: Joe P. (13940)
Aircraft: BOEING 737-700
(B737)
More flights by this aircraft type
Origin: KSLC Salt Lake City Intl
United States
Destination: KPDX Portland Intl
United States
More flights between these airports :: More routes between these airports
Route: +CGULL1 TWF J15 BOI J163 BKE JOTBA HHOOD4
File this flight plan on PilotEdge
Remarks: KSEA -PBN / A1B1C1D1L1O1S1 NAV / RNVD1E2A1 DOF / 180803 REG / N389DA EET / KZSE0055 RVR / 200 PER / C
Altitude:
(Current/Filed)
340ft
Speed:
(Current/Filed)
461kts
Departed: 02-Aug-18 07:48 PM
Arrived: 02-Aug-18 09:20 PM
Distance/Time
Traveled:
546nm/1:32
Distance/Time
To Go:
Arrived

Flight Plot

Page will automatically refresh every two minutes.

Flight plan parsing failed; only flown route is shown


Map Options




Map Legend


Flown Route
Filed Route
Departure Airport
Arrival Airport
Navaid (VOR, NDB)
Fix

Horizontal Profiles

Position Reports

Time Latitude Longitude Heading Altitude Ground
Speed
02-Aug-18 19:00 40.789081 -111.985539 129 4235ft 0kts
02-Aug-18 19:01 40.789081 -111.985539 129 4235ft 0kts
02-Aug-18 19:02 40.789081 -111.985539 129 4235ft 0kts
02-Aug-18 19:03 40.789081 -111.985539 129 4235ft 0kts
02-Aug-18 19:04 40.789081 -111.985539 129 4235ft 0kts
02-Aug-18 19:05 40.789081 -111.985539 129 4235ft 0kts
02-Aug-18 19:06 40.789081 -111.985539 129 4235ft 0kts
02-Aug-18 19:07 40.789081 -111.985539 129 4235ft 0kts
02-Aug-18 19:08 40.789081 -111.985539 129 4235ft 0kts
02-Aug-18 19:09 40.789081 -111.985539 129 4235ft 0kts
02-Aug-18 19:10 40.789081 -111.985539 129 4235ft 0kts
02-Aug-18 19:11 40.789081 -111.985539 129 4235ft 0kts
02-Aug-18 19:12 40.789081 -111.985539 129 4235ft 0kts
02-Aug-18 19:13 40.789081 -111.985539 129 4235ft 0kts
02-Aug-18 19:14 40.789081 -111.985539 129 4235ft 0kts
02-Aug-18 19:15 40.789081 -111.985539 129 4235ft 0kts
02-Aug-18 19:16 40.789081 -111.985539 129 4235ft 0kts
02-Aug-18 19:17 40.789081 -111.985539 129 4235ft 0kts
02-Aug-18 19:18 40.789081 -111.985539 129 4235ft 0kts
02-Aug-18 19:19 40.789081 -111.985539 129 4235ft 0kts
02-Aug-18 19:20 40.789081 -111.985539 129 4235ft 0kts
02-Aug-18 19:21 40.789081 -111.985539 129 4235ft 0kts
02-Aug-18 19:22 40.789081 -111.985539 129 4235ft 0kts
02-Aug-18 19:23 40.789081 -111.985539 129 4235ft 0kts
02-Aug-18 19:24 40.789081 -111.985539 129 4235ft 0kts
02-Aug-18 19:25 40.789081 -111.985539 129 4235ft 0kts
02-Aug-18 19:26 40.789081 -111.985539 129 4235ft 0kts
02-Aug-18 19:27 40.789081 -111.985539 129 4235ft 0kts
02-Aug-18 19:28 40.789081 -111.985539 129 4235ft 0kts
02-Aug-18 19:29 40.789081 -111.985539 129 4235ft 0kts
02-Aug-18 19:30 40.789081 -111.985539 129 4235ft 0kts
02-Aug-18 19:31 40.789081 -111.985539 129 4235ft 0kts
02-Aug-18 19:32 40.789339 -111.986007 117 4235ft 2kts
02-Aug-18 19:33 40.789261 -111.986623 27 4235ft 2kts
02-Aug-18 19:34 40.789244 -111.986634 27 4235ft 0kts
02-Aug-18 19:35 40.789244 -111.986634 27 4235ft 0kts
02-Aug-18 19:36 40.789244 -111.986634 27 4235ft 0kts
02-Aug-18 19:37 40.789244 -111.986634 27 4235ft 0kts
02-Aug-18 19:38 40.789245 -111.986634 27 4235ft 0kts
02-Aug-18 19:39 40.789246 -111.986633 27 4235ft 0kts
02-Aug-18 19:40 40.790212 -111.986463 351 4235ft 17kts
02-Aug-18 19:41 40.791299 -111.990431 262 4235ft 16kts
02-Aug-18 19:42 40.791609 -111.994375 337 4235ft 10kts
02-Aug-18 19:43 40.795612 -111.994794 351 4235ft 9kts
02-Aug-18 19:44 40.799644 -111.995241 355 4235ft 22kts
02-Aug-18 19:45 40.804652 -111.995823 353 4235ft 15kts
02-Aug-18 19:46 40.806852 -111.996730 230 4235ft 0kts
02-Aug-18 19:47 40.807063 -111.997838 264 4235ft 0kts
02-Aug-18 19:48 40.807024 -111.998378 265 4235ft 5kts
02-Aug-18 19:49 40.797748 -111.998132 175 4235ft 127kts
02-Aug-18 19:50 40.760274 -112.015995 271 6616ft 180kts
02-Aug-18 19:51 40.788816 -112.069143 307 9261ft 186kts
02-Aug-18 19:52 40.831301 -112.125749 314 10641ft 250kts
02-Aug-18 19:53 40.887987 -112.196352 315 12380ft 314kts
02-Aug-18 19:54 40.958056 -112.284508 315 13873ft 370kts
02-Aug-18 19:55 41.033523 -112.379904 314 16551ft 378kts
02-Aug-18 19:56 41.115669 -112.464734 325 19691ft 377kts
02-Aug-18 19:57 41.206213 -112.544682 317 21347ft 393kts
02-Aug-18 19:58 41.293278 -112.641095 311 24727ft 411kts
02-Aug-18 19:59 41.372546 -112.757832 308 25666ft 433kts
02-Aug-18 20:00 41.453196 -112.879236 307 26951ft 442kts
02-Aug-18 20:01 41.534698 -113.004614 306 28105ft 451kts
02-Aug-18 20:02 41.617153 -113.131828 305 29319ft 456kts
02-Aug-18 20:03 41.700484 -113.259986 305 30861ft 452kts
02-Aug-18 20:04 41.782844 -113.387764 304 32230ft 453kts
02-Aug-18 20:05 41.865150 -113.515992 303 33524ft 453kts
02-Aug-18 20:06 41.947492 -113.644897 302 34031ft 456kts
02-Aug-18 20:07 42.029573 -113.773478 302 34027ft 452kts
02-Aug-18 20:08 42.111081 -113.902511 302 34023ft 452kts
02-Aug-18 20:09 42.192300 -114.031318 302 34022ft 452kts
02-Aug-18 20:10 42.273730 -114.160500 302 34024ft 451kts
02-Aug-18 20:11 42.355142 -114.289397 301 34027ft 450kts
02-Aug-18 20:12 42.435747 -114.418545 301 34029ft 448kts
02-Aug-18 20:13 42.516838 -114.546813 302 34029ft 448kts
02-Aug-18 20:14 42.598875 -114.673926 302 34034ft 445kts
02-Aug-18 20:15 42.679986 -114.800449 302 34031ft 444kts
02-Aug-18 20:16 42.761507 -114.927261 302 34030ft 443kts
02-Aug-18 20:17 42.842194 -115.053422 302 34026ft 442kts
02-Aug-18 20:18 42.922815 -115.180290 302 34014ft 441kts
02-Aug-18 20:19 43.002914 -115.306970 302 34000ft 440kts
02-Aug-18 20:20 43.082589 -115.433538 302 33977ft 439kts
02-Aug-18 20:21 43.162262 -115.560672 302 33962ft 438kts
02-Aug-18 20:22 43.241348 -115.687426 302 33958ft 437kts
02-Aug-18 20:23 43.320171 -115.814317 301 33955ft 436kts
02-Aug-18 20:24 43.398854 -115.941012 301 33946ft 435kts
02-Aug-18 20:25 43.476705 -116.067688 301 33931ft 432kts
02-Aug-18 20:26 43.555192 -116.193812 306 33920ft 438kts
02-Aug-18 20:27 43.646647 -116.307054 309 33916ft 442kts
02-Aug-18 20:28 43.738780 -116.420026 309 33909ft 442kts
02-Aug-18 20:29 43.830563 -116.532973 309 33905ft 442kts
02-Aug-18 20:30 43.922882 -116.646500 309 33903ft 442kts
02-Aug-18 20:31 44.014387 -116.759873 309 33899ft 440kts
02-Aug-18 20:32 44.105359 -116.873190 309 33896ft 438kts
02-Aug-18 20:33 44.195887 -116.986483 309 33900ft 438kts
02-Aug-18 20:34 44.286218 -117.100020 308 33915ft 436kts
02-Aug-18 20:35 44.376114 -117.213507 308 33937ft 436kts
02-Aug-18 20:36 44.465893 -117.327351 308 33970ft 435kts
02-Aug-18 20:37 44.555330 -117.441242 308 33999ft 434kts
02-Aug-18 20:38 44.644711 -117.555180 308 34021ft 434kts
02-Aug-18 20:39 44.733527 -117.669362 308 34035ft 433kts
02-Aug-18 20:40 44.820202 -117.786531 296 34036ft 416kts
02-Aug-18 20:41 44.854378 -117.933754 275 34040ft 399kts
02-Aug-18 20:42 44.875865 -118.086292 274 34042ft 396kts
02-Aug-18 20:43 44.896014 -118.239465 274 34046ft 396kts
02-Aug-18 20:44 44.916126 -118.392361 274 34053ft 396kts
02-Aug-18 20:45 44.935856 -118.545447 274 34049ft 396kts
02-Aug-18 20:46 44.955175 -118.698707 274 34054ft 396kts
02-Aug-18 20:47 44.974223 -118.852152 274 34055ft 395kts
02-Aug-18 20:48 44.993028 -119.005576 274 34026ft 396kts
02-Aug-18 20:49 45.011540 -119.158467 274 34007ft 396kts
02-Aug-18 20:50 45.029962 -119.312443 274 34008ft 396kts
02-Aug-18 20:51 45.048114 -119.466002 274 34023ft 397kts
02-Aug-18 20:52 45.066075 -119.619787 273 34020ft 397kts
02-Aug-18 20:53 45.083895 -119.774222 273 34019ft 397kts
02-Aug-18 20:54 45.101418 -119.927978 273 34020ft 396kts
02-Aug-18 20:55 45.118723 -120.080996 274 31902ft 394kts
02-Aug-18 20:56 45.135809 -120.232306 273 29680ft 381kts
02-Aug-18 20:57 45.151613 -120.377884 273 27685ft 368kts
02-Aug-18 20:58 45.170705 -120.518844 284 25722ft 368kts
02-Aug-18 20:59 45.216986 -120.649086 291 23787ft 368kts
02-Aug-18 21:00 45.266112 -120.776370 292 21855ft 365kts
02-Aug-18 21:01 45.314340 -120.902558 293 19935ft 361kts
02-Aug-18 21:02 45.361838 -121.027638 293 18040ft 358kts
02-Aug-18 21:03 45.401180 -121.131228 294 16358ft 354kts
02-Aug-18 21:04 45.443973 -121.278514 282 14228ft 338kts
02-Aug-18 21:05 45.464374 -121.384198 282 13096ft 321kts
02-Aug-18 21:06 45.487820 -121.502119 283 12022ft 301kts
02-Aug-18 21:07 45.513221 -121.631709 283 10704ft 276kts
02-Aug-18 21:08 45.529111 -121.716744 278 9854ft 254kts
02-Aug-18 21:09 45.533208 -121.810889 273 8902ft 225kts
02-Aug-18 21:10 45.536728 -121.915472 273 7912ft 230kts
02-Aug-18 21:11 45.528059 -121.989760 256 7179ft 225kts
02-Aug-18 21:12 45.511238 -122.074764 256 6992ft 226kts
02-Aug-18 21:13 45.491887 -122.160723 248 5985ft 219kts
02-Aug-18 21:14 45.466378 -122.245910 249 4395ft 248kts
02-Aug-18 21:15 45.485903 -122.325750 302 3788ft 212kts
02-Aug-18 21:16 45.513847 -122.388598 298 2773ft 169kts
02-Aug-18 21:17 45.535019 -122.442447 299 1983ft 150kts
02-Aug-18 21:18 45.555760 -122.495535 300 1176ft 153kts
02-Aug-18 21:19 45.576640 -122.549040 300 356ft 154kts
02-Aug-18 21:20 45.593315 -122.592035 295 26ft 48kts
02-Aug-18 21:21 45.594288 -122.595354 248 26ft 0kts
02-Aug-18 21:22 45.594287 -122.595356 248 26ft 0kts
02-Aug-18 21:23 45.593038 -122.596737 150 26ft 8kts
02-Aug-18 21:24 45.591414 -122.594045 203 26ft 0kts
02-Aug-18 21:25 45.591267 -122.594137 203 26ft 0kts
02-Aug-18 21:26 45.591267 -122.594137 203 26ft 0kts
02-Aug-18 21:27 45.591267 -122.594137 203 26ft 0kts
02-Aug-18 21:28 45.591267 -122.594137 203 26ft 0kts
02-Aug-18 21:29 45.591267 -122.594137 203 26ft 0kts
02-Aug-18 21:30 45.591267 -122.594137 203 26ft 0kts
02-Aug-18 21:31 45.591267 -122.594137 203 26ft 0kts
02-Aug-18 21:32 45.591267 -122.594137 203 26ft 0kts
02-Aug-18 21:33 45.591267 -122.594137 203 26ft 0kts

Navigation Log

Ident Type
Flight plan parsing failed, navigation log unavailable